createdAt,value
2017-10-14T00:01:22.267Z,15.30
2017-10-14T00:03:49.824Z,15.30
2017-10-14T00:06:17.781Z,15.20
2017-10-14T00:08:45.325Z,15.20
2017-10-14T00:11:12.857Z,15.20
2017-10-14T00:13:40.788Z,15.20
2017-10-14T00:16:08.308Z,15.20
2017-10-14T00:18:35.854Z,15.10
2017-10-14T00:21:03.389Z,15.10
2017-10-14T00:23:30.921Z,15.10
2017-10-14T00:25:58.484Z,15.10
2017-10-14T00:28:26.404Z,15.00
2017-10-14T00:30:53.964Z,15.10
2017-10-14T00:33:22.002Z,15.00
2017-10-14T00:35:49.565Z,15.00
2017-10-14T00:38:17.109Z,15.00
2017-10-14T00:40:44.624Z,15.00
2017-10-14T00:43:12.154Z,14.90
2017-10-14T00:45:39.718Z,14.90
2017-10-14T00:48:07.266Z,14.90
2017-10-14T00:50:34.814Z,14.80
2017-10-14T00:53:02.407Z,14.80
2017-10-14T00:55:29.924Z,14.70
2017-10-14T00:57:57.486Z,14.70
2017-10-14T01:00:25.036Z,14.60
2017-10-14T01:02:52.579Z,14.50
2017-10-14T01:05:20.537Z,14.40
2017-10-14T01:07:48.076Z,14.40
2017-10-14T01:10:15.641Z,14.30
2017-10-14T01:12:43.170Z,14.20
2017-10-14T01:15:11.109Z,14.10
2017-10-14T01:17:38.642Z,14.10
2017-10-14T01:20:06.169Z,14.00
2017-10-14T01:22:33.745Z,13.90
2017-10-14T01:25:01.292Z,13.90
2017-10-14T01:27:28.856Z,13.80
2017-10-14T01:29:56.395Z,13.80
2017-10-14T01:32:23.975Z,13.70
2017-10-14T01:34:51.504Z,13.70
2017-10-14T01:37:19.034Z,13.70
2017-10-14T01:39:46.595Z,13.60
2017-10-14T01:42:14.116Z,13.60
2017-10-14T01:44:41.661Z,13.50
2017-10-14T01:47:09.199Z,13.50
2017-10-14T01:49:36.764Z,13.50
2017-10-14T01:52:04.703Z,13.40
2017-10-14T01:54:32.247Z,13.40
2017-10-14T01:56:59.793Z,13.30
2017-10-14T01:59:27.339Z,13.30
2017-10-14T02:01:54.886Z,13.30
2017-10-14T02:04:22.412Z,13.20
2017-10-14T02:06:50.011Z,13.20
2017-10-14T02:09:17.539Z,13.20
2017-10-14T02:11:45.502Z,13.10
2017-10-14T02:14:13.046Z,13.10
2017-10-14T02:16:40.572Z,13.10
2017-10-14T02:19:08.528Z,13.00
2017-10-14T02:21:36.056Z,13.00
2017-10-14T02:24:03.604Z,13.00
2017-10-14T02:26:31.136Z,12.90
2017-10-14T02:28:58.767Z,12.90
2017-10-14T02:31:26.350Z,12.90
2017-10-14T02:33:53.920Z,12.80
2017-10-14T02:36:21.446Z,12.80
2017-10-14T02:38:49.380Z,12.80
2017-10-14T02:41:16.945Z,12.90
2017-10-14T02:43:44.469Z,12.80
2017-10-14T02:46:12.431Z,12.70
2017-10-14T02:48:39.973Z,12.80
2017-10-14T02:51:07.536Z,12.70
2017-10-14T02:53:35.078Z,12.70
2017-10-14T02:56:02.653Z,12.70
2017-10-14T02:58:30.194Z,12.60
2017-10-14T03:00:57.723Z,12.60
2017-10-14T03:03:25.273Z,12.60
2017-10-14T03:05:52.843Z,12.60
2017-10-14T03:08:20.397Z,12.60
2017-10-14T03:10:47.948Z,12.60
2017-10-14T03:13:15.490Z,12.50
2017-10-14T03:15:43.021Z,12.50
2017-10-14T03:18:10.615Z,12.50
2017-10-14T03:20:38.159Z,12.50
2017-10-14T03:23:05.697Z,12.40
2017-10-14T03:25:33.249Z,12.40
2017-10-14T03:28:00.777Z,12.30
2017-10-14T03:30:28.346Z,12.30
2017-10-14T03:32:55.887Z,12.30
2017-10-14T03:35:23.426Z,12.20
2017-10-14T03:37:50.975Z,12.20
2017-10-14T03:40:18.532Z,12.20
2017-10-14T03:42:46.073Z,12.20
2017-10-14T03:45:13.615Z,12.20
2017-10-14T03:47:41.172Z,12.20
2017-10-14T03:50:08.704Z,12.10
2017-10-14T03:52:36.668Z,12.00
2017-10-14T03:55:04.198Z,12.10
2017-10-14T03:57:31.751Z,12.00
2017-10-14T03:59:59.311Z,12.00
2017-10-14T04:02:27.268Z,11.90
2017-10-14T04:04:54.816Z,12.00
2017-10-14T04:07:22.366Z,11.90
2017-10-14T04:09:49.917Z,11.90
2017-10-14T04:12:17.453Z,11.90
2017-10-14T04:14:45.440Z,11.90
2017-10-14T04:17:13.365Z,11.80
2017-10-14T04:19:40.917Z,11.90
2017-10-14T04:22:08.454Z,11.90
2017-10-14T04:24:36.080Z,11.80
2017-10-14T04:27:03.611Z,11.80
2017-10-14T04:29:31.552Z,11.80
2017-10-14T04:31:59.107Z,11.80
2017-10-14T04:34:26.665Z,11.80
2017-10-14T04:36:54.222Z,11.80
2017-10-14T04:39:21.817Z,11.80
2017-10-14T04:41:49.370Z,11.70
2017-10-14T04:44:17.297Z,11.80
2017-10-14T04:46:44.848Z,11.80
2017-10-14T04:49:12.391Z,11.70
2017-10-14T04:51:40.362Z,11.70
2017-10-14T04:54:08.302Z,11.60
2017-10-14T04:56:35.858Z,11.60
2017-10-14T04:59:03.415Z,11.60
2017-10-14T05:01:30.953Z,11.60
2017-10-14T05:03:58.519Z,11.50
2017-10-14T05:06:26.066Z,11.50
2017-10-14T05:08:53.619Z,11.40
2017-10-14T05:11:21.175Z,11.40
2017-10-14T05:13:48.747Z,11.40
2017-10-14T05:16:16.334Z,11.40
2017-10-14T05:18:43.868Z,11.30
2017-10-14T05:21:11.828Z,11.30
2017-10-14T05:23:39.790Z,11.30
2017-10-14T05:26:07.366Z,11.30
2017-10-14T05:28:34.909Z,11.30
2017-10-14T05:31:02.474Z,11.30
2017-10-14T05:33:30.018Z,11.30
2017-10-14T05:35:57.999Z,11.20
2017-10-14T05:38:25.928Z,11.20
2017-10-14T05:40:53.482Z,11.20
2017-10-14T05:43:21.032Z,11.20
2017-10-14T05:45:48.580Z,11.10
2017-10-14T05:48:16.145Z,11.10
2017-10-14T05:50:43.709Z,11.10
2017-10-14T05:53:11.271Z,11.10
2017-10-14T05:55:38.792Z,11.00
2017-10-14T05:58:06.363Z,11.00
2017-10-14T06:00:33.892Z,11.00
2017-10-14T06:03:01.485Z,11.00
2017-10-14T06:05:29.449Z,11.00
2017-10-14T06:07:56.988Z,11.00
2017-10-14T06:10:24.529Z,11.00
2017-10-14T06:12:52.086Z,11.00
2017-10-14T06:15:19.648Z,11.00
2017-10-14T06:17:47.587Z,11.00
2017-10-14T06:20:15.213Z,11.00
2017-10-14T06:22:42.808Z,11.00
2017-10-14T06:25:10.388Z,11.00
2017-10-14T06:27:37.915Z,11.00
2017-10-14T06:30:05.896Z,11.00
2017-10-14T06:32:33.841Z,11.00
2017-10-14T06:35:01.386Z,11.00
2017-10-14T06:37:28.956Z,11.00
2017-10-14T06:39:56.489Z,11.00
2017-10-14T06:42:24.049Z,11.10
2017-10-14T06:44:51.596Z,11.20
2017-10-14T06:47:19.147Z,11.20
2017-10-14T06:49:46.689Z,11.20
2017-10-14T06:52:14.655Z,11.30
2017-10-14T06:54:42.189Z,11.30
2017-10-14T06:57:09.720Z,11.30
2017-10-14T06:59:37.677Z,11.40
2017-10-14T07:02:05.221Z,11.40
2017-10-14T07:04:32.773Z,11.50
2017-10-14T07:07:00.310Z,11.60
2017-10-14T07:09:27.860Z,11.80
2017-10-14T07:11:55.426Z,11.90
2017-10-14T07:14:22.985Z,12.10
2017-10-14T07:16:50.566Z,12.40
2017-10-14T07:19:18.101Z,12.50
2017-10-14T07:21:45.673Z,12.60
2017-10-14T07:24:13.202Z,12.80
2017-10-14T07:26:40.770Z,12.90
2017-10-14T07:29:08.315Z,13.00
2017-10-14T07:31:35.871Z,13.30
2017-10-14T07:34:03.410Z,13.50
2017-10-14T07:36:31.363Z,14.00
2017-10-14T07:38:58.880Z,14.00
2017-10-14T07:41:26.451Z,14.30
2017-10-14T07:43:53.975Z,14.50
2017-10-14T07:46:21.514Z,14.70
2017-10-14T07:48:49.078Z,15.00
2017-10-14T07:51:16.610Z,15.20
2017-10-14T07:53:44.554Z,15.60
2017-10-14T07:56:12.083Z,15.60
2017-10-14T07:58:39.634Z,15.80
2017-10-14T08:01:07.553Z,16.20
2017-10-14T08:03:35.099Z,16.20
2017-10-14T08:06:03.019Z,16.40
2017-10-14T08:08:30.580Z,16.40
2017-10-14T08:10:58.184Z,16.60
2017-10-14T08:13:25.722Z,16.70
2017-10-14T08:15:53.268Z,16.90
2017-10-14T08:18:20.804Z,17.10
2017-10-14T08:20:48.456Z,17.30
2017-10-14T08:23:16.002Z,17.50
2017-10-14T08:25:43.549Z,17.60
2017-10-14T08:28:11.109Z,17.80
2017-10-14T08:30:39.113Z,18.00
2017-10-14T08:33:06.658Z,18.00
2017-10-14T08:35:35.528Z,18.10
2017-10-14T08:38:03.486Z,18.30
2017-10-14T08:40:31.012Z,18.30
2017-10-14T08:42:58.561Z,18.50
2017-10-14T08:45:26.136Z,18.50
2017-10-14T08:47:53.694Z,18.60
2017-10-14T08:50:21.235Z,18.70
2017-10-14T08:52:48.785Z,18.80
2017-10-14T08:55:16.705Z,19.00
2017-10-14T08:57:44.268Z,19.00
2017-10-14T09:00:11.793Z,19.00
2017-10-14T09:02:39.371Z,19.10
2017-10-14T09:05:06.898Z,19.10
2017-10-14T09:07:34.444Z,19.20
2017-10-14T09:10:01.990Z,19.30
2017-10-14T09:12:29.913Z,19.50
2017-10-14T09:14:57.488Z,19.50
2017-10-14T09:17:25.015Z,19.60
2017-10-14T09:19:52.962Z,19.70
2017-10-14T09:22:20.493Z,19.70
2017-10-14T09:24:48.038Z,19.80
2017-10-14T09:27:15.961Z,20.00
2017-10-14T09:29:43.522Z,20.00
2017-10-14T09:32:11.058Z,20.20
2017-10-14T09:34:38.981Z,20.30
2017-10-14T09:37:06.526Z,20.30
2017-10-14T09:39:34.067Z,20.40
2017-10-14T09:42:01.614Z,20.50
2017-10-14T09:44:29.139Z,20.60
2017-10-14T09:46:57.084Z,20.60
2017-10-14T09:49:24.610Z,20.60
2017-10-14T09:51:52.161Z,20.70
2017-10-14T09:54:20.081Z,20.90
2017-10-14T09:56:47.630Z,20.90
2017-10-14T09:59:15.186Z,20.80
2017-10-14T10:01:43.124Z,20.70
2017-10-14T10:04:10.671Z,20.70
2017-10-14T10:06:38.224Z,20.70
2017-10-14T10:09:05.786Z,20.90
2017-10-14T10:11:33.342Z,21.00
2017-10-14T10:14:00.916Z,21.20
2017-10-14T10:16:28.849Z,21.40
2017-10-14T10:18:56.416Z,21.40
2017-10-14T10:21:23.963Z,21.50
2017-10-14T10:23:51.493Z,21.50
2017-10-14T10:26:19.061Z,21.60
2017-10-14T10:28:46.604Z,21.60
2017-10-14T10:31:14.145Z,21.70
2017-10-14T10:33:42.092Z,21.70
2017-10-14T10:36:09.645Z,21.70
2017-10-14T10:38:37.181Z,21.80
2017-10-14T10:41:04.707Z,21.90
2017-10-14T10:43:32.643Z,21.90
2017-10-14T10:46:00.197Z,21.90
2017-10-14T10:48:28.207Z,22.00
2017-10-14T10:50:55.740Z,21.90
2017-10-14T10:53:23.275Z,22.00
2017-10-14T10:55:50.812Z,22.00
2017-10-14T10:58:18.360Z,22.00
2017-10-14T11:00:45.899Z,22.00
2017-10-14T11:03:13.873Z,22.10
2017-10-14T11:05:41.404Z,22.10
2017-10-14T11:08:08.926Z,22.20
2017-10-14T11:10:36.892Z,22.30
2017-10-14T11:13:04.422Z,22.30
2017-10-14T11:15:32.009Z,22.30
2017-10-14T11:17:59.532Z,22.40
2017-10-14T11:20:27.475Z,22.40
2017-10-14T11:22:55.014Z,22.40
2017-10-14T11:25:22.561Z,22.40
2017-10-14T11:27:50.099Z,22.30
2017-10-14T11:30:17.670Z,22.40
2017-10-14T11:32:45.615Z,22.40
2017-10-14T11:35:13.143Z,22.40
2017-10-14T11:37:40.697Z,22.40
2017-10-14T11:40:08.236Z,22.40
2017-10-14T11:42:35.784Z,22.40
2017-10-14T11:45:03.328Z,22.40
2017-10-14T11:47:31.269Z,22.50
2017-10-14T11:49:58.784Z,22.40
2017-10-14T11:52:26.737Z,22.30
2017-10-14T11:54:54.276Z,22.30
2017-10-14T11:57:21.811Z,22.30
2017-10-14T11:59:49.748Z,22.40
2017-10-14T12:02:17.289Z,22.40
2017-10-14T12:04:44.832Z,22.40
2017-10-14T12:07:12.772Z,22.40
2017-10-14T12:09:40.328Z,22.40
2017-10-14T12:12:07.858Z,22.40
2017-10-14T12:14:35.791Z,22.50
2017-10-14T12:17:03.331Z,22.50
2017-10-14T12:19:30.882Z,22.40
2017-10-14T12:21:58.418Z,22.40
2017-10-14T12:24:25.958Z,22.40
2017-10-14T12:26:53.504Z,22.40
2017-10-14T12:29:21.052Z,22.40
2017-10-14T12:31:48.998Z,22.40
2017-10-14T12:34:16.527Z,22.40
2017-10-14T12:36:44.144Z,22.30
2017-10-14T12:39:11.680Z,22.20
2017-10-14T12:41:39.247Z,22.20
2017-10-14T12:44:06.782Z,22.30
2017-10-14T12:46:34.353Z,22.30
2017-10-14T12:49:01.898Z,22.40
2017-10-14T12:51:29.429Z,22.50
2017-10-14T12:53:57.371Z,22.50
2017-10-14T12:56:24.903Z,22.50
2017-10-14T12:58:52.448Z,22.40
2017-10-14T13:01:19.976Z,22.40
2017-10-14T13:03:47.558Z,22.50
2017-10-14T13:06:15.082Z,22.60
2017-10-14T13:08:42.682Z,22.70
2017-10-14T13:11:10.225Z,22.70
2017-10-14T13:13:37.770Z,22.80
2017-10-14T13:16:05.690Z,22.90
2017-10-14T13:18:33.229Z,22.90
2017-10-14T13:21:01.172Z,22.90
2017-10-14T13:23:28.695Z,22.90
2017-10-14T13:25:56.266Z,22.90
2017-10-14T13:28:23.799Z,22.90
2017-10-14T13:30:51.352Z,22.80
2017-10-14T13:33:18.899Z,22.70
2017-10-14T13:35:46.456Z,22.60
2017-10-14T13:38:13.981Z,22.60
2017-10-14T13:40:41.590Z,22.50
2017-10-14T13:43:09.116Z,22.50
2017-10-14T13:45:36.637Z,22.50
2017-10-14T13:48:04.237Z,22.60
2017-10-14T13:50:31.770Z,22.50
2017-10-14T13:52:59.339Z,22.50
2017-10-14T13:55:27.261Z,22.50
2017-10-14T13:57:54.815Z,22.40
2017-10-14T14:00:22.340Z,22.50
2017-10-14T14:02:49.891Z,22.50
2017-10-14T14:05:17.426Z,22.40
2017-10-14T14:07:44.981Z,22.40
2017-10-14T14:10:13.002Z,22.40
2017-10-14T14:12:41.059Z,22.40
2017-10-14T14:15:08.598Z,22.30
2017-10-14T14:17:36.121Z,22.20
2017-10-14T14:20:03.669Z,22.10
2017-10-14T14:22:31.219Z,22.10
2017-10-14T14:24:59.145Z,21.90
2017-10-14T14:27:26.652Z,22.00
2017-10-14T14:29:54.221Z,21.90
2017-10-14T14:32:21.750Z,21.80
2017-10-14T14:34:49.288Z,21.80
2017-10-14T14:37:17.269Z,21.70
2017-10-14T14:39:45.254Z,21.60
2017-10-14T14:42:12.856Z,21.60
2017-10-14T14:44:40.397Z,21.50
2017-10-14T14:47:07.943Z,21.50
2017-10-14T14:49:35.489Z,21.50
2017-10-14T14:52:03.046Z,21.40
2017-10-14T14:54:30.608Z,21.30
2017-10-14T14:56:58.159Z,21.30
2017-10-14T14:59:26.075Z,21.20
2017-10-14T15:01:53.624Z,21.20
2017-10-14T15:04:21.159Z,21.10
2017-10-14T15:06:48.695Z,21.10
2017-10-14T15:09:16.236Z,21.10
2017-10-14T15:11:43.769Z,21.00
2017-10-14T15:14:11.313Z,21.00
2017-10-14T15:16:38.852Z,20.90
2017-10-14T15:19:06.651Z,20.90
2017-10-14T15:21:34.185Z,20.90
2017-10-14T15:24:02.142Z,20.80
2017-10-14T15:26:29.666Z,20.80
2017-10-14T15:28:57.189Z,20.80
2017-10-14T15:31:24.727Z,20.80
2017-10-14T15:33:52.265Z,20.70
2017-10-14T15:36:19.813Z,20.60
2017-10-14T15:38:47.735Z,20.60
2017-10-14T15:41:15.304Z,20.60
2017-10-14T15:43:42.833Z,20.50
2017-10-14T15:46:10.375Z,20.50
2017-10-14T15:48:37.897Z,20.40
2017-10-14T15:51:05.436Z,20.40
2017-10-14T15:53:32.960Z,20.40
2017-10-14T15:56:00.521Z,20.30
2017-10-14T15:58:28.055Z,20.20
2017-10-14T16:00:55.625Z,20.20
2017-10-14T16:03:23.214Z,20.10
2017-10-14T16:05:51.142Z,19.90
2017-10-14T16:08:18.693Z,20.00
2017-10-14T16:10:46.226Z,19.90
2017-10-14T16:13:13.791Z,19.80
2017-10-14T16:15:41.309Z,19.80
2017-10-14T16:18:08.850Z,19.60
2017-10-14T16:20:36.839Z,19.60
2017-10-14T16:23:04.802Z,19.30
2017-10-14T16:25:32.736Z,19.20
2017-10-14T16:28:00.269Z,19.20
2017-10-14T16:30:28.193Z,19.00
2017-10-14T16:32:55.745Z,19.10
2017-10-14T16:35:23.269Z,18.90
2017-10-14T16:37:50.842Z,18.80
2017-10-14T16:40:18.368Z,18.70
2017-10-14T16:42:46.355Z,18.50
2017-10-14T16:45:13.893Z,18.60
2017-10-14T16:47:41.807Z,18.40
2017-10-14T16:50:09.357Z,18.40
2017-10-14T16:52:36.917Z,18.30
2017-10-14T16:55:04.483Z,18.20
2017-10-14T16:57:32.425Z,18.10
2017-10-14T17:00:00.000Z,18.10
2017-10-14T17:02:27.552Z,18.00
2017-10-14T17:04:55.375Z,17.90
2017-10-14T17:07:22.971Z,17.80
2017-10-14T17:09:50.925Z,17.70
2017-10-14T17:12:18.873Z,17.50
2017-10-14T17:14:46.950Z,17.50
2017-10-14T17:17:14.529Z,17.40
2017-10-14T17:19:42.045Z,17.40
2017-10-14T17:22:09.964Z,17.20
2017-10-14T17:24:37.516Z,17.30
2017-10-14T17:27:06.112Z,17.10
2017-10-14T17:29:33.673Z,17.00
2017-10-14T17:32:01.196Z,17.00
2017-10-14T17:34:28.775Z,16.90
2017-10-14T17:36:56.322Z,16.90
2017-10-14T17:39:23.856Z,16.80
2017-10-14T17:41:51.400Z,16.70
2017-10-14T17:44:18.926Z,16.70
2017-10-14T17:46:46.488Z,16.60
2017-10-14T17:49:14.023Z,16.50
2017-10-14T17:51:41.575Z,16.50
2017-10-14T17:54:09.110Z,16.50
2017-10-14T17:56:36.666Z,16.40
2017-10-14T17:59:04.202Z,16.40
2017-10-14T18:01:31.770Z,16.40
2017-10-14T18:03:59.368Z,16.40
2017-10-14T18:06:27.377Z,16.40
2017-10-14T18:08:54.924Z,16.50
2017-10-14T18:11:23.018Z,16.40
2017-10-14T18:13:50.584Z,16.40
2017-10-14T18:16:18.186Z,16.30
2017-10-14T18:18:45.740Z,16.30
2017-10-14T18:21:13.357Z,16.30
2017-10-14T18:23:40.892Z,16.30
2017-10-14T18:26:08.516Z,16.30
2017-10-14T18:28:36.137Z,16.40
2017-10-14T18:31:04.417Z,16.40
2017-10-14T18:33:31.956Z,16.40
2017-10-14T18:35:59.613Z,16.40
2017-10-14T18:38:27.178Z,16.40
2017-10-14T18:40:54.863Z,16.40
2017-10-14T18:43:22.449Z,16.40
2017-10-14T18:45:50.052Z,16.40
2017-10-14T18:48:17.619Z,16.40
2017-10-14T18:50:45.553Z,16.40
2017-10-14T18:53:13.123Z,16.50
2017-10-14T18:55:40.796Z,16.40
2017-10-14T18:58:08.761Z,16.30
2017-10-14T19:00:36.302Z,16.40
2017-10-14T19:03:03.835Z,16.20
2017-10-14T19:05:31.424Z,16.10
2017-10-14T19:07:59.336Z,15.90
2017-10-14T19:10:27.011Z,15.90
2017-10-14T19:12:54.550Z,15.80
2017-10-14T19:15:22.501Z,15.70
2017-10-14T19:17:50.040Z,15.80
2017-10-14T19:20:17.604Z,15.70
2017-10-14T19:22:45.152Z,15.70
2017-10-14T19:25:13.093Z,15.70
2017-10-14T19:27:40.646Z,15.80
2017-10-14T19:30:08.176Z,15.70
2017-10-14T19:32:35.699Z,15.70
2017-10-14T19:35:03.378Z,15.70
2017-10-14T19:37:30.916Z,15.60
2017-10-14T19:39:58.637Z,15.50
2017-10-14T19:42:26.163Z,15.40
2017-10-14T19:44:53.818Z,15.30
2017-10-14T19:47:21.388Z,15.30
2017-10-14T19:49:49.103Z,15.20
2017-10-14T19:52:16.649Z,15.20
2017-10-14T19:54:44.257Z,15.20
2017-10-14T19:57:11.801Z,15.20
2017-10-14T19:59:39.414Z,15.10
2017-10-14T20:02:06.960Z,15.00
2017-10-14T20:04:34.602Z,15.00
2017-10-14T20:07:02.173Z,14.90
2017-10-14T20:09:29.776Z,14.90
2017-10-14T20:11:57.308Z,14.90
2017-10-14T20:14:25.324Z,14.90
2017-10-14T20:16:52.863Z,14.90
2017-10-14T20:19:20.925Z,14.90
2017-10-14T20:21:48.449Z,14.90
2017-10-14T20:24:16.089Z,14.80
2017-10-14T20:26:44.008Z,14.60
2017-10-14T20:29:11.656Z,14.70
2017-10-14T20:31:39.186Z,14.60
2017-10-14T20:34:06.881Z,14.60
2017-10-14T20:36:34.406Z,14.60
2017-10-14T20:39:02.055Z,14.60
2017-10-14T20:41:29.576Z,14.60
2017-10-14T20:43:57.238Z,14.50
2017-10-14T20:46:24.771Z,14.50
2017-10-14T20:48:52.390Z,14.40
2017-10-14T20:51:19.993Z,14.40
2017-10-14T20:53:47.634Z,14.40
2017-10-14T20:56:15.170Z,14.30
2017-10-14T20:58:42.728Z,14.20
2017-10-14T21:01:10.293Z,14.20
2017-10-14T21:03:37.832Z,14.10
2017-10-14T21:06:05.401Z,14.10
2017-10-14T21:08:32.931Z,14.10
2017-10-14T21:11:00.459Z,14.10
2017-10-14T21:13:27.995Z,14.20
2017-10-14T21:15:55.516Z,14.20
2017-10-14T21:18:23.129Z,14.20
2017-10-14T21:20:50.690Z,14.20
2017-10-14T21:23:18.232Z,14.10
2017-10-14T21:25:46.168Z,14.00
2017-10-14T21:28:13.724Z,14.10
2017-10-14T21:30:41.262Z,14.00
2017-10-14T21:33:08.793Z,13.90
2017-10-14T21:35:36.340Z,13.90
2017-10-14T21:38:03.955Z,13.80
2017-10-14T21:40:31.893Z,13.80
2017-10-14T21:42:59.439Z,13.80
2017-10-14T21:45:27.042Z,13.80
2017-10-14T21:47:54.621Z,13.80
2017-10-14T21:50:22.275Z,13.90
2017-10-14T21:52:49.830Z,14.00
2017-10-14T21:55:17.372Z,14.10
2017-10-14T21:57:45.340Z,14.20
2017-10-14T22:00:12.871Z,14.20
2017-10-14T22:02:40.430Z,14.20
2017-10-14T22:05:08.089Z,14.20
2017-10-14T22:07:35.621Z,14.30
2017-10-14T22:10:03.193Z,14.30
2017-10-14T22:12:30.748Z,14.30
2017-10-14T22:14:58.336Z,14.20
2017-10-14T22:17:25.865Z,14.20
2017-10-14T22:19:53.431Z,14.20
2017-10-14T22:22:20.976Z,14.20
2017-10-14T22:24:48.521Z,14.20
2017-10-14T22:27:16.958Z,14.10
2017-10-14T22:29:44.521Z,14.10
2017-10-14T22:32:12.044Z,14.10
2017-10-14T22:34:39.627Z,14.10
2017-10-14T22:37:07.158Z,14.10
2017-10-14T22:39:34.689Z,14.10
2017-10-14T22:42:02.643Z,14.10
2017-10-14T22:44:30.178Z,14.10
2017-10-14T22:46:57.743Z,14.10
2017-10-14T22:49:25.306Z,14.10
2017-10-14T22:51:52.868Z,14.10
2017-10-14T22:54:20.785Z,14.10
2017-10-14T22:56:48.522Z,14.10
2017-10-14T22:59:16.448Z,14.10
2017-10-14T23:01:43.976Z,14.20
2017-10-14T23:04:11.514Z,14.10
2017-10-14T23:06:39.061Z,14.10
2017-10-14T23:09:06.682Z,14.10
2017-10-14T23:11:34.613Z,14.10
2017-10-14T23:14:02.149Z,14.20
2017-10-14T23:16:30.087Z,14.20
2017-10-14T23:18:57.653Z,14.20
2017-10-14T23:21:25.178Z,14.20
2017-10-14T23:23:52.723Z,14.30
2017-10-14T23:26:20.297Z,14.30
2017-10-14T23:28:47.829Z,14.40
2017-10-14T23:31:15.381Z,14.40
2017-10-14T23:33:42.901Z,14.50
2017-10-14T23:36:10.454Z,14.50
2017-10-14T23:38:37.981Z,14.50
2017-10-14T23:41:05.532Z,14.50
2017-10-14T23:43:33.513Z,14.50
2017-10-14T23:46:01.506Z,14.60
2017-10-14T23:48:29.058Z,14.60
2017-10-14T23:50:56.596Z,14.50
2017-10-14T23:53:24.155Z,14.50
2017-10-14T23:55:51.701Z,14.50
2017-10-14T23:58:19.228Z,14.50
